»·PEaware :: VIP318 KFOT-KRDD

VIP318 :: KFOT-KRDD

FLIGHT INFORMATION

Flight Status: Arrived
Operator:
Virtual Pilots Association (website)
More flights by this operator :: More flights under this callsign
Pilot: Chris B. (15698)
Aircraft: PIAGGIO P-180 AVANTI
(P180)
More flights by this aircraft type
Origin: KFOT Rohnerville
United States
Destination: KRDD Redding Mun
United States
More flights between these airports :: More routes between these airports
Route: YAGER V195 BURRS DIBLE
File this flight plan on PilotEdge
Remarks:
Altitude:
(Current/Filed)
11,000ft
Speed:
(Current/Filed)
285kts
Departed: 24-Jan-18 01:27 PM
Arrived: 24-Jan-18 01:59 PM
Distance/Time
Traveled:
84nm/0:32
Distance/Time
To Go:
Arrived

Flight Plot

Page will automatically refresh every two minutes.

Flight plan parsing failed; only flown route is shown


Map Options




Map Legend


Flown Route
Filed Route
Departure Airport
Arrival Airport
Navaid (VOR, NDB)
Fix

Horizontal Profiles

Position Reports

Time Latitude Longitude Heading Altitude Ground
Speed
24-Jan-18 13:23 40.555614 -124.132538 219 397ft 0kts
24-Jan-18 13:24 40.555614 -124.132538 219 397ft 0kts
24-Jan-18 13:25 40.555614 -124.132538 219 397ft 0kts
24-Jan-18 13:26 40.555614 -124.132538 219 397ft 0kts
24-Jan-18 13:27 40.555614 -124.132538 219 397ft 0kts
24-Jan-18 13:28 40.555614 -124.132538 219 397ft 0kts
24-Jan-18 13:29 40.555614 -124.132538 219 397ft 0kts
24-Jan-18 13:30 40.555757 -124.132692 162 397ft 10kts
24-Jan-18 13:31 40.556694 -124.135857 308 397ft 31kts
24-Jan-18 13:32 40.557494 -124.138015 215 397ft 4kts
24-Jan-18 13:33 40.545125 -124.117330 127 1240ft 125kts
24-Jan-18 13:34 40.522837 -124.081878 132 3385ft 137kts
24-Jan-18 13:35 40.517682 -124.037471 67 5499ft 159kts
24-Jan-18 13:36 40.540426 -123.985383 67 7288ft 193kts
24-Jan-18 13:37 40.554137 -123.916650 91 9323ft 208kts
24-Jan-18 13:38 40.556749 -123.843751 96 10976ft 232kts
24-Jan-18 13:39 40.537268 -123.754554 115 11001ft 298kts
24-Jan-18 13:40 40.509389 -123.653991 116 10997ft 337kts
24-Jan-18 13:41 40.478769 -123.545229 116 10988ft 332kts
24-Jan-18 13:42 40.450295 -123.444695 116 10989ft 304kts
24-Jan-18 13:43 40.423488 -123.350537 117 10993ft 290kts
24-Jan-18 13:44 40.401061 -123.272048 117 10988ft 291kts
24-Jan-18 13:45 40.374049 -123.177637 118 11043ft 290kts
24-Jan-18 13:46 40.346059 -123.080414 118 11044ft 292kts
24-Jan-18 13:47 40.318872 -122.986212 118 11044ft 293kts
24-Jan-18 13:48 40.292394 -122.894788 118 11045ft 295kts
24-Jan-18 13:49 40.279045 -122.802220 103 10451ft 298kts
24-Jan-18 13:50 40.271440 -122.710767 103 9310ft 257kts
24-Jan-18 13:51 40.264472 -122.625272 103 7953ft 234kts
24-Jan-18 13:52 40.258533 -122.547202 103 6483ft 206kts
24-Jan-18 13:53 40.253687 -122.476331 103 5047ft 176kts
24-Jan-18 13:54 40.250185 -122.414825 102 3562ft 170kts
24-Jan-18 13:55 40.247574 -122.360676 102 3035ft 121kts
24-Jan-18 13:56 40.246959 -122.317528 102 3062ft 144kts
24-Jan-18 13:57 40.245317 -122.269694 102 3053ft 151kts
24-Jan-18 13:58 40.256200 -122.218828 23 3045ft 176kts
24-Jan-18 13:59 40.286434 -122.250625 283 3053ft 150kts
24-Jan-18 14:00 40.310015 -122.293978 323 3054ft 164kts
24-Jan-18 14:01 40.356373 -122.295317 359 3051ft 172kts
24-Jan-18 14:02 40.406531 -122.295018 357 2411ft 193kts
24-Jan-18 14:03 40.452853 -122.294910 356 1489ft 141kts
24-Jan-18 14:04 40.487773 -122.294901 357 808ft 117kts
24-Jan-18 14:05 40.510186 -122.294953 0 506ft 25kts
24-Jan-18 14:06 40.514241 -122.295877 268 506ft 0kts
24-Jan-18 14:07 40.513631 -122.296327 181 506ft 22kts
24-Jan-18 14:08 40.510727 -122.298897 211 506ft 7kts
24-Jan-18 14:09 40.510625 -122.298931 181 506ft 0kts
24-Jan-18 14:10 40.510625 -122.298931 181 506ft 0kts
24-Jan-18 14:11 40.510625 -122.298931 181 506ft 0kts
24-Jan-18 14:12 40.510625 -122.298931 181 506ft 0kts
24-Jan-18 14:13 40.510625 -122.298931 181 506ft 0kts
24-Jan-18 14:14 40.510625 -122.298931 181 506ft 0kts
24-Jan-18 14:15 40.510625 -122.298931 181 506ft 0kts
24-Jan-18 14:16 40.510625 -122.298931 181 506ft 0kts

Navigation Log

Ident Type
Flight plan parsing failed, navigation log unavailable